メインページ
METAR-TAF:

METAR-TAF

空港 :

Tofino, ブリティッシュコロンビア州, カナダ

緯度: 49-05N, 経度: 125-46W, 海抜: 24m

現時点の気象観測

当レポートは1時間5分前の15:02(UTC)に作成
南東の風 5kt
気温 13°C
湿度 94%
気圧 1014 hPa
視程: 8.0km
高度600ftの曇り

METAR: CYAZ 111502Z 14005KT 5SM BR OVC006 13/12 A2994 RMK ST8 SLP140

時間: 09:07 (16:07 UTC)

予報

当レポートは53分前の15:14(UTC)に作成
予報は11日の 15時(UTC)から 12日の 01時(UTC)まで有効
南東の風 5kt
視程: 4.8km
高度500ftの曇り
小霧雨, 靄
11日の 15時(UTC)から 11日の 18時(UTC)まで一時的に
視程: 10km
高度500ftの雲は散在している
高度700ftの千切れ雲あり
11日の 1800時(UTC)から
南/南西の風 5kt
視程: 10km
高度700ftの千切れ雲あり
11日の 18時(UTC)から 11日の 20時(UTC)まで徐々に
高度500ftの雲はほとんどない
高度1200ftの雲は散在している
11日の 2000時(UTC)から
南/南西の風 5kt
視程: 10km
高度1200ftの雲はほとんどない
11日の 20時(UTC)から 11日の 22時(UTC)まで徐々に
西/北西の風 8kt

TAF: CYAZ 111514Z 1115/1201 14005KT 3SM -DZ BR OVC005 TEMPO 1115/1118 P6SM NSW SCT005 BKN007 FM111800 21005KT P6SM BKN007 BECMG 1118/1120 FEW005 SCT012 FM112000 21005KT P6SM FEW012 BECMG 1120/1122 29008KT RMK NXT FCST BY 111900Z

4,000以上の空港の気象観測と天気予報(METAR報とTAF報)

利用可能な観測所は地図上に黄色い丸と赤い丸で示す。

丸の上にカーソルを重ねると観測所名を参照できる。

次にクリックすると気象観測と天気予報を参照できる。

マップの切り替え:黒色「×」印の緑ボタンをクリックして拡大、「-」印の緑ボタンをクリックして縮小、緑色の三角印をクリックして隣りの地図に切り替え


METAR-TAF: